createdAt,value
2023-03-13T00:00:12.366Z,8.8
2023-03-13T00:03:12.333Z,8.8
2023-03-13T00:06:12.294Z,8.8
2023-03-13T00:09:12.412Z,8.8
2023-03-13T00:12:12.408Z,8.8
2023-03-13T00:15:12.587Z,8.8
2023-03-13T00:18:12.390Z,8.8
2023-03-13T00:21:12.379Z,8.8
2023-03-13T00:24:12.446Z,8.9
2023-03-13T00:27:12.474Z,8.9
2023-03-13T00:30:12.271Z,8.9
2023-03-13T00:33:12.452Z,9
2023-03-13T00:36:12.524Z,9
2023-03-13T00:39:12.512Z,9
2023-03-13T00:42:12.274Z,9
2023-03-13T00:45:12.372Z,9
2023-03-13T00:48:12.283Z,9
2023-03-13T00:51:12.364Z,9.1
2023-03-13T00:54:12.287Z,9.1
2023-03-13T00:57:12.296Z,9.1
2023-03-13T01:00:12.462Z,9.1
2023-03-13T01:03:13.550Z,9.1
2023-03-13T01:06:12.358Z,9.1
2023-03-13T01:09:12.362Z,9.1
2023-03-13T01:12:12.450Z,9.1
2023-03-13T01:15:12.355Z,9.1
2023-03-13T01:18:12.284Z,9.1
2023-03-13T01:21:12.293Z,9.3
2023-03-13T01:24:12.435Z,9.3
2023-03-13T01:27:12.323Z,9.3
2023-03-13T01:30:12.526Z,9.3
2023-03-13T01:33:12.338Z,9.3
2023-03-13T01:36:12.569Z,9.4
2023-03-13T01:39:12.456Z,9.4
2023-03-13T01:42:12.316Z,9.4
2023-03-13T01:45:12.458Z,9.5
2023-03-13T01:48:12.256Z,9.5
2023-03-13T01:51:12.282Z,9.5
2023-03-13T01:54:12.356Z,9.5
2023-03-13T01:57:12.358Z,9.5
2023-03-13T02:00:12.481Z,9.5
2023-03-13T02:03:12.726Z,9.5
2023-03-13T02:06:12.365Z,9.6
2023-03-13T02:09:12.278Z,9.6
2023-03-13T02:12:12.392Z,9.5
2023-03-13T02:15:12.401Z,9.5
2023-03-13T02:18:12.367Z,9.5
2023-03-13T02:21:12.319Z,9.5
2023-03-13T02:24:12.322Z,9.5
2023-03-13T02:27:12.315Z,9.4
2023-03-13T02:30:12.311Z,9.4
2023-03-13T02:33:12.768Z,9.4
2023-03-13T02:36:12.576Z,9.3
2023-03-13T02:39:12.350Z,9.1
2023-03-13T02:42:12.285Z,9
2023-03-13T02:45:12.366Z,8.9
2023-03-13T02:48:12.503Z,8.9
2023-03-13T02:51:12.357Z,8.8
2023-03-13T02:54:12.338Z,8.6
2023-03-13T02:57:12.414Z,8.6
2023-03-13T03:00:12.465Z,8.5
2023-03-13T03:03:12.427Z,8.5
2023-03-13T03:06:12.327Z,8.4
2023-03-13T03:09:12.363Z,8.4
2023-03-13T03:12:12.445Z,8.3
2023-03-13T03:15:12.389Z,8.3
2023-03-13T03:18:12.520Z,8.3
2023-03-13T03:21:12.401Z,8.3
2023-03-13T03:24:12.408Z,8.1
2023-03-13T03:27:12.268Z,8.1
2023-03-13T03:30:12.415Z,8.1
2023-03-13T03:33:12.503Z,8.1
2023-03-13T03:36:12.943Z,8.1
2023-03-13T03:39:12.559Z,8.1
2023-03-13T03:42:12.379Z,8.1
2023-03-13T03:45:12.488Z,8.1
2023-03-13T03:48:12.424Z,8.1
2023-03-13T03:51:12.306Z,8.1
2023-03-13T03:54:12.324Z,8.1
2023-03-13T03:57:12.312Z,8
2023-03-13T04:00:12.398Z,8
2023-03-13T04:03:12.781Z,8
2023-03-13T04:06:12.348Z,8
2023-03-13T04:09:12.289Z,8
2023-03-13T04:12:12.419Z,8
2023-03-13T04:15:12.331Z,8
2023-03-13T04:18:12.412Z,8
2023-03-13T04:21:12.306Z,8
2023-03-13T04:24:12.577Z,8
2023-03-13T04:27:12.292Z,8
2023-03-13T04:30:12.524Z,8
2023-03-13T04:33:12.569Z,8
2023-03-13T04:36:12.772Z,8
2023-03-13T04:39:12.327Z,8
2023-03-13T04:42:12.322Z,8
2023-03-13T04:45:12.379Z,8
2023-03-13T04:48:12.262Z,8
2023-03-13T04:51:12.282Z,8
2023-03-13T04:54:12.304Z,8
2023-03-13T04:57:12.277Z,8
2023-03-13T05:00:12.946Z,8
2023-03-13T05:03:12.320Z,8
2023-03-13T05:06:12.313Z,8
2023-03-13T05:09:12.393Z,8
2023-03-13T05:12:12.380Z,8.1
2023-03-13T05:15:12.351Z,8.1
2023-03-13T05:18:12.347Z,8.3
2023-03-13T05:21:12.377Z,8.3
2023-03-13T05:24:12.348Z,8.4
2023-03-13T05:27:12.382Z,8.4
2023-03-13T05:30:12.456Z,8.5
2023-03-13T05:33:12.720Z,8.5
2023-03-13T05:36:13.050Z,8.5
2023-03-13T05:39:12.297Z,8.6
2023-03-13T05:42:12.330Z,8.6
2023-03-13T05:45:12.406Z,8.6
2023-03-13T05:48:12.501Z,8.6
2023-03-13T05:51:12.577Z,8.8
2023-03-13T05:54:15.018Z,8.8
2023-03-13T05:57:12.329Z,8.8
2023-03-13T06:00:12.598Z,8.8
2023-03-13T06:03:15.946Z,8.9
2023-03-13T06:06:12.362Z,8.9
2023-03-13T06:09:12.307Z,9
2023-03-13T06:12:12.472Z,9
2023-03-13T06:15:14.732Z,9.1
2023-03-13T06:18:12.354Z,9.3
2023-03-13T06:21:12.441Z,9.4
2023-03-13T06:24:12.389Z,9.6
2023-03-13T06:27:12.335Z,9.8
2023-03-13T06:30:12.843Z,9.9
2023-03-13T06:33:13.394Z,10
2023-03-13T06:36:12.742Z,10.1
2023-03-13T06:39:12.331Z,10.4
2023-03-13T06:42:12.411Z,10.5
2023-03-13T06:45:12.396Z,10.6
2023-03-13T06:48:12.313Z,10.8
2023-03-13T06:51:12.377Z,10.8
2023-03-13T06:54:12.406Z,10.9
2023-03-13T06:57:12.304Z,11.1
2023-03-13T07:00:12.488Z,11.4
2023-03-13T07:03:12.419Z,11.8
2023-03-13T07:06:12.444Z,11.9
2023-03-13T07:09:12.403Z,12
2023-03-13T07:12:12.393Z,11.9
2023-03-13T07:15:12.566Z,11.9
2023-03-13T07:18:12.327Z,11.9
2023-03-13T07:21:12.475Z,11.9
2023-03-13T07:24:12.804Z,12
2023-03-13T07:27:19.767Z,11.9
2023-03-13T07:30:12.519Z,11.8
2023-03-13T07:33:12.783Z,11.5
2023-03-13T07:36:12.656Z,11.4
2023-03-13T07:39:12.456Z,11.4
2023-03-13T07:42:12.367Z,11.5
2023-03-13T07:45:13.463Z,11.9
2023-03-13T07:48:12.542Z,12.2
2023-03-13T07:51:12.514Z,12.5
2023-03-13T07:54:12.729Z,12.9
2023-03-13T07:57:12.407Z,13
2023-03-13T08:00:13.354Z,13
2023-03-13T08:03:13.476Z,13
2023-03-13T08:06:13.017Z,13.1
2023-03-13T08:09:13.574Z,13
2023-03-13T08:12:13.393Z,13
2023-03-13T08:15:13.234Z,13.3
2023-03-13T08:18:12.507Z,13.8
2023-03-13T08:21:12.422Z,13.9
2023-03-13T08:24:12.584Z,14
2023-03-13T08:27:12.482Z,14
2023-03-13T08:30:12.459Z,13.9
2023-03-13T08:33:15.353Z,13.8
2023-03-13T08:36:12.606Z,13.8
2023-03-13T08:39:12.484Z,13.6
2023-03-13T08:42:12.385Z,13.6
2023-03-13T08:45:12.430Z,13.5
2023-03-13T08:48:12.479Z,14
2023-03-13T08:51:12.864Z,14
2023-03-13T08:54:12.311Z,13.9
2023-03-13T08:57:12.525Z,14.1
2023-03-13T09:00:12.491Z,14.3
2023-03-13T09:03:12.440Z,14.5
2023-03-13T09:06:12.520Z,15.4
2023-03-13T09:09:12.601Z,15.8
2023-03-13T09:12:32.188Z,16.5
2023-03-13T09:15:12.476Z,16.8
2023-03-13T09:18:12.754Z,17
2023-03-13T09:21:12.376Z,17.5
2023-03-13T09:24:12.397Z,18.1
2023-03-13T09:27:13.158Z,19.6
2023-03-13T09:30:12.342Z,20.3
2023-03-13T09:33:12.949Z,20.6
2023-03-13T09:36:12.765Z,21
2023-03-13T09:39:12.493Z,22.2
2023-03-13T09:42:15.083Z,22.4
2023-03-13T09:45:12.437Z,22.5
2023-03-13T09:48:12.654Z,22.8
2023-03-13T09:51:12.372Z,23.1
2023-03-13T09:54:12.347Z,23.1
2023-03-13T09:57:12.412Z,23.6
2023-03-13T10:00:12.441Z,24.5
2023-03-13T10:03:12.376Z,24.1
2023-03-13T10:06:12.384Z,24.6
2023-03-13T10:09:12.388Z,24.7
2023-03-13T10:12:12.384Z,24.4
2023-03-13T10:15:12.504Z,23.5
2023-03-13T10:18:12.356Z,23
2023-03-13T10:21:12.280Z,22
2023-03-13T10:24:12.419Z,21.9
2023-03-13T10:27:12.485Z,21.1
2023-03-13T10:30:12.523Z,20.4
2023-03-13T10:33:12.668Z,20.1
2023-03-13T10:36:12.914Z,19.3
2023-03-13T10:39:12.486Z,18.8
2023-03-13T10:42:12.380Z,18.8
2023-03-13T10:45:12.365Z,19.1
2023-03-13T10:48:12.442Z,19.5
2023-03-13T10:51:13.753Z,19.9
2023-03-13T10:54:12.399Z,19.8
2023-03-13T10:57:12.457Z,19.3
2023-03-13T11:00:15.375Z,18.9
2023-03-13T11:03:13.377Z,18.5
2023-03-13T11:06:12.456Z,18.6
2023-03-13T11:09:12.363Z,18.8
2023-03-13T11:12:12.365Z,19.5
2023-03-13T11:15:13.057Z,20.1
2023-03-13T11:18:12.435Z,20.8
2023-03-13T11:21:29.716Z,21
2023-03-13T11:24:12.354Z,21
2023-03-13T11:27:16.941Z,21.6
2023-03-13T11:30:12.534Z,22.8
2023-03-13T11:33:12.751Z,23.9
2023-03-13T11:36:13.061Z,24.5
2023-03-13T11:39:12.530Z,24.9
2023-03-13T11:42:12.438Z,25.4
2023-03-13T11:45:12.490Z,25.3
2023-03-13T11:48:12.274Z,28.3
2023-03-13T11:51:12.709Z,27.5
2023-03-13T11:54:16.212Z,26.1
2023-03-13T11:57:12.407Z,25.8
2023-03-13T12:00:12.644Z,25.3
2023-03-13T12:03:12.587Z,29.3
2023-03-13T12:06:33.873Z,28.7
2023-03-13T12:09:12.674Z,30.8
2023-03-13T12:12:12.639Z,32
2023-03-13T12:15:12.673Z,34.9
2023-03-13T12:18:12.474Z,36
2023-03-13T12:21:12.595Z,37.6
2023-03-13T12:24:12.902Z,38.9
2023-03-13T12:27:12.500Z,39.2
2023-03-13T12:30:12.625Z,39.1
2023-03-13T12:33:13.021Z,39.7
2023-03-13T12:36:12.790Z,40.2
2023-03-13T12:39:12.531Z,40.2
2023-03-13T12:42:12.598Z,39
2023-03-13T12:45:12.584Z,38.7
2023-03-13T12:48:12.735Z,40.6
2023-03-13T12:51:12.470Z,41.2
2023-03-13T12:54:13.127Z,42.1
2023-03-13T12:57:12.431Z,42.6
2023-03-13T13:00:12.870Z,43.1
2023-03-13T13:03:12.561Z,43.3
2023-03-13T13:06:12.644Z,42.6
2023-03-13T13:09:12.481Z,42.1
2023-03-13T13:12:12.450Z,40.8
2023-03-13T13:15:12.393Z,40.5
2023-03-13T13:18:12.524Z,39.5
2023-03-13T13:21:12.408Z,40
2023-03-13T13:24:12.428Z,39.7
2023-03-13T13:27:12.492Z,39.7
2023-03-13T13:30:12.567Z,39.6
2023-03-13T13:33:15.942Z,39.4
2023-03-13T13:36:13.193Z,39.2
2023-03-13T13:39:12.459Z,38.6
2023-03-13T13:42:12.983Z,37.4
2023-03-13T13:45:12.624Z,36.9
2023-03-13T13:48:12.487Z,36.1
2023-03-13T13:51:12.440Z,35.5
2023-03-13T13:54:12.505Z,35
2023-03-13T13:57:12.894Z,34
2023-03-13T14:00:12.561Z,33.7
2023-03-13T14:03:12.390Z,33.7
2023-03-13T14:06:12.476Z,32.6
2023-03-13T14:09:12.386Z,32.6
2023-03-13T14:12:12.428Z,32.4
2023-03-13T14:15:12.525Z,33
2023-03-13T14:18:12.499Z,32.2
2023-03-13T14:21:12.493Z,32.4
2023-03-13T14:24:12.592Z,31.2
2023-03-13T14:27:12.443Z,31
2023-03-13T14:30:12.461Z,32.1
2023-03-13T14:33:12.920Z,33.1
2023-03-13T14:36:12.810Z,33.7
2023-03-13T14:39:12.591Z,34
2023-03-13T14:42:12.484Z,34.6
2023-03-13T14:45:12.440Z,34
2023-03-13T14:48:12.408Z,33.2
2023-03-13T14:51:28.749Z,32.4
2023-03-13T14:54:12.578Z,30.3
2023-03-13T14:57:12.535Z,27.4
2023-03-13T15:00:12.572Z,25.4
2023-03-13T15:03:12.435Z,23.6
2023-03-13T15:06:12.508Z,26.5
2023-03-13T15:09:12.338Z,29.1
2023-03-13T15:12:12.462Z,30.8
2023-03-13T15:15:12.377Z,30.8
2023-03-13T15:18:12.517Z,31.5
2023-03-13T15:21:12.449Z,31.5
2023-03-13T15:24:12.405Z,27
2023-03-13T15:27:12.584Z,24.7
2023-03-13T15:30:12.557Z,27.8
2023-03-13T15:33:13.005Z,28.6
2023-03-13T15:36:12.937Z,29.5
2023-03-13T15:39:12.475Z,29.8
2023-03-13T15:42:12.517Z,29.8
2023-03-13T15:45:12.577Z,28
2023-03-13T15:48:12.363Z,25.9
2023-03-13T15:51:12.404Z,24.3
2023-03-13T15:54:12.476Z,23.4
2023-03-13T15:57:12.572Z,21.9
2023-03-13T16:00:12.440Z,20.8
2023-03-13T16:03:12.424Z,20.3
2023-03-13T16:06:12.469Z,19.4
2023-03-13T16:09:12.439Z,18.9
2023-03-13T16:12:12.447Z,18.4
2023-03-13T16:15:12.444Z,18
2023-03-13T16:18:12.384Z,17.6
2023-03-13T16:21:12.431Z,17.5
2023-03-13T16:24:12.476Z,17.4
2023-03-13T16:27:12.452Z,17.1
2023-03-13T16:30:12.612Z,17
2023-03-13T16:33:12.832Z,16.8
2023-03-13T16:36:12.650Z,16.5
2023-03-13T16:39:12.444Z,16.4
2023-03-13T16:42:12.493Z,16.3
2023-03-13T16:45:12.406Z,16
2023-03-13T16:48:12.566Z,15.8
2023-03-13T16:51:15.216Z,15.6
2023-03-13T16:54:12.442Z,15.5
2023-03-13T16:57:12.532Z,15.1
2023-03-13T17:00:12.642Z,14.7
2023-03-13T17:03:13.221Z,14.5
2023-03-13T17:06:12.619Z,14.4
2023-03-13T17:09:12.461Z,14.3
2023-03-13T17:12:12.442Z,14.3
2023-03-13T17:15:12.556Z,14.1
2023-03-13T17:18:12.465Z,13.9
2023-03-13T17:21:13.455Z,13.8
2023-03-13T17:24:12.471Z,13.5
2023-03-13T17:27:12.342Z,13.3
2023-03-13T17:30:12.670Z,13.3
2023-03-13T17:33:12.440Z,13.1
2023-03-13T17:36:12.903Z,13
2023-03-13T17:39:12.356Z,12.9
2023-03-13T17:42:12.322Z,12.9
2023-03-13T17:45:12.343Z,12.9
2023-03-13T17:48:12.300Z,12.8
2023-03-13T17:51:12.357Z,12.8
2023-03-13T17:54:14.476Z,12.6
2023-03-13T17:57:12.232Z,12.8
2023-03-13T18:00:12.463Z,12.6
2023-03-13T18:03:12.785Z,12.6
2023-03-13T18:06:12.252Z,12.8
2023-03-13T18:09:12.510Z,12.8
2023-03-13T18:12:12.394Z,12.8
2023-03-13T18:15:12.443Z,12.9
2023-03-13T18:18:12.385Z,12.9
2023-03-13T18:21:12.318Z,12.9
2023-03-13T18:24:12.334Z,12.9
2023-03-13T18:27:12.299Z,12.8
2023-03-13T18:30:12.382Z,12.9
2023-03-13T18:33:12.565Z,12.8
2023-03-13T18:36:12.590Z,12.9
2023-03-13T18:39:12.346Z,12.9
2023-03-13T18:42:12.340Z,12.9
2023-03-13T18:45:12.347Z,12.9
2023-03-13T18:48:12.326Z,13
2023-03-13T18:51:12.308Z,12.9
2023-03-13T18:54:12.354Z,12.9
2023-03-13T18:57:12.277Z,12.9
2023-03-13T19:00:12.612Z,12.9
2023-03-13T19:03:12.287Z,13
2023-03-13T19:06:12.296Z,13
2023-03-13T19:09:48.618Z,13.1
2023-03-13T19:12:12.266Z,13.1
2023-03-13T19:15:12.358Z,13.1
2023-03-13T19:18:14.805Z,13
2023-03-13T19:21:12.503Z,12.9
2023-03-13T19:24:12.361Z,12.9
2023-03-13T19:27:12.351Z,12.9
2023-03-13T19:30:12.300Z,12.8
2023-03-13T19:33:12.650Z,12.8
2023-03-13T19:36:12.504Z,12.9
2023-03-13T19:39:12.283Z,12.9
2023-03-13T19:42:12.423Z,12.9
2023-03-13T19:45:12.275Z,12.9
2023-03-13T19:48:12.291Z,12.8
2023-03-13T19:51:12.374Z,12.8
2023-03-13T19:54:12.340Z,12.8
2023-03-13T19:57:12.393Z,12.9
2023-03-13T20:00:12.362Z,12.9
2023-03-13T20:03:12.538Z,12.9
2023-03-13T20:06:12.340Z,12.9
2023-03-13T20:09:12.304Z,12.9
2023-03-13T20:12:12.416Z,13
2023-03-13T20:15:12.348Z,13
2023-03-13T20:18:12.469Z,13
2023-03-13T20:21:12.394Z,13.1
2023-03-13T20:24:12.767Z,13.3
2023-03-13T20:27:12.325Z,13.3
2023-03-13T20:30:12.331Z,13.3
2023-03-13T20:33:13.021Z,13.3
2023-03-13T20:36:12.699Z,13.3
2023-03-13T20:39:12.345Z,13.3
2023-03-13T20:42:14.458Z,13.3
2023-03-13T20:45:12.328Z,13.3
2023-03-13T20:48:12.390Z,13.3
2023-03-13T20:51:13.423Z,13.1
2023-03-13T20:54:12.384Z,13.1
2023-03-13T20:57:12.277Z,13.1
2023-03-13T21:00:12.477Z,13.1
2023-03-13T21:03:12.422Z,13.1
2023-03-13T21:06:12.351Z,13
2023-03-13T21:09:12.379Z,13
2023-03-13T21:12:12.354Z,13.1
2023-03-13T21:15:14.899Z,13
2023-03-13T21:18:12.553Z,13
2023-03-13T21:21:12.652Z,13
2023-03-13T21:24:12.330Z,13
2023-03-13T21:27:12.395Z,12.9
2023-03-13T21:30:12.275Z,12.8
2023-03-13T21:33:12.378Z,12.8
2023-03-13T21:36:12.759Z,12.6
2023-03-13T21:39:13.900Z,12.6
2023-03-13T21:42:12.305Z,12.5
2023-03-13T21:45:12.588Z,12.4
2023-03-13T21:48:12.363Z,12.4
2023-03-13T21:51:12.480Z,12.2
2023-03-13T21:54:12.337Z,12.2
2023-03-13T21:57:12.301Z,12.1
2023-03-13T22:00:12.537Z,12.1
2023-03-13T22:03:12.962Z,12
2023-03-13T22:06:12.281Z,12
2023-03-13T22:09:12.443Z,11.9
2023-03-13T22:12:12.274Z,11.8
2023-03-13T22:15:12.369Z,11.8
2023-03-13T22:18:12.361Z,11.6
2023-03-13T22:21:12.319Z,11.6
2023-03-13T22:24:14.545Z,11.5
2023-03-13T22:27:12.414Z,11.5
2023-03-13T22:30:12.592Z,11.4
2023-03-13T22:33:12.628Z,11.3
2023-03-13T22:36:12.795Z,11.1
2023-03-13T22:39:12.277Z,11.1
2023-03-13T22:42:12.289Z,11
2023-03-13T22:45:12.322Z,11
2023-03-13T22:48:12.425Z,11
2023-03-13T22:51:15.081Z,11
2023-03-13T22:54:12.279Z,11
2023-03-13T22:57:12.285Z,11
2023-03-13T23:00:12.580Z,11
2023-03-13T23:03:12.344Z,10.9
2023-03-13T23:06:12.356Z,11
2023-03-13T23:09:12.347Z,11
2023-03-13T23:12:12.350Z,11.1
2023-03-13T23:15:12.267Z,11.1
2023-03-13T23:18:12.718Z,11.1
2023-03-13T23:21:12.334Z,11
2023-03-13T23:24:12.349Z,11
2023-03-13T23:27:12.364Z,11.1
2023-03-13T23:30:12.235Z,11.1
2023-03-13T23:33:12.364Z,11.1
2023-03-13T23:36:12.769Z,11
2023-03-13T23:39:12.388Z,11
2023-03-13T23:42:12.392Z,11
2023-03-13T23:45:12.331Z,11
2023-03-13T23:48:12.336Z,11.1
2023-03-13T23:51:12.333Z,11.1
2023-03-13T23:54:12.305Z,11.1
2023-03-13T23:57:12.319Z,11
